Time;durP1;ratioP1;P1;durP2;ratioP2;P2;SDS_P1;SDS_P2;PMS_P1;PMS_P2;Temp;Humidity;BMP_temperature;BMP_pressure;BME280_temperature;BME280_humidity;BME280_pressure;Samples;Min_cycle;Max_cycle;Signal;HPM_P1;HPM_P2
2023/05/10 00:02:02;;;;;;;2.53;1.70;;;;;;;16.68;83.52;98072.53;4921656;28;41530;-76
2023/05/10 00:04:31;;;;;;;1.60;1.50;;;;;;;16.71;84.29;98072.19;4921788;28;39268;-76
2023/05/10 00:06:58;;;;;;;1.50;1.40;;;;;;;16.72;84.38;98079.22;4921686;28;40832;-76
2023/05/10 00:09:26;;;;;;;1.30;1.20;;;;;;;16.65;84.36;98062.13;4937271;28;41595;-76
2023/05/10 00:11:54;;;;;;;1.37;1.07;;;;;;;16.73;83.37;98072.88;4937557;28;42278;-76
2023/05/10 00:14:21;;;;;;;1.80;1.50;;;;;;;16.73;84.42;98069.38;4937616;28;40832;-75
2023/05/10 00:16:48;;;;;;;2.27;1.67;;;;;;;16.66;84.54;98071.84;4937224;28;41758;-76
2023/05/10 00:19:16;;;;;;;1.23;1.17;;;;;;;16.66;84.68;98069.16;4937488;28;43821;-75
2023/05/10 00:21:45;;;;;;;2.43;1.53;;;;;;;16.67;84.69;98065.50;4937498;28;43153;-76
2023/05/10 00:24:12;;;;;;;1.30;1.20;;;;;;;16.60;84.14;98053.69;4954604;28;40103;-76
2023/05/10 00:26:42;;;;;;;1.80;1.47;;;;;;;16.69;84.18;98068.84;4937462;28;42667;-76
2023/05/10 00:29:09;;;;;;;1.60;1.50;;;;;;;16.68;84.14;98066.34;4936997;28;43826;-76
2023/05/10 00:31:37;;;;;;;1.50;1.40;;;;;;;16.66;83.60;98057.63;4937408;28;43214;-76
2023/05/10 00:34:05;;;;;;;1.90;1.23;;;;;;;16.70;84.14;98065.16;4937190;28;39213;-76
2023/05/10 00:36:32;;;;;;;1.90;1.60;;;;;;;16.69;84.52;98066.16;4920918;28;42170;-76
2023/05/10 00:39:03;;;;;;;1.50;1.40;;;;;;;16.63;84.44;98058.75;4921073;28;41629;-76
2023/05/10 00:41:32;;;;;;;2.83;1.50;;;;;;;16.66;84.97;98062.97;4921099;28;42124;-76
2023/05/10 00:44:01;;;;;;;2.73;1.67;;;;;;;16.64;84.83;98063.13;4921186;28;39942;-76
2023/05/10 00:46:30;;;;;;;1.50;1.40;;;;;;;16.63;84.57;98064.13;4921072;28;41983;-76
2023/05/10 00:49:00;;;;;;;1.50;1.33;;;;;;;16.60;85.36;98061.69;4936796;28;42746;-76
2023/05/10 00:51:27;;;;;;;1.40;1.30;;;;;;;16.59;84.67;98057.34;4936870;28;42254;-76
2023/05/10 00:53:56;;;;;;;3.57;1.60;;;;;;;16.58;85.21;98065.50;4921099;28;39960;-76
2023/05/10 00:56:26;;;;;;;2.90;1.60;;;;;;;16.59;85.10;98068.03;4936922;28;40867;-76
2023/05/10 00:58:53;;;;;;;2.03;1.50;;;;;;;16.58;86.87;98060.16;4920349;28;41773;-76
2023/05/10 01:01:21;;;;;;;2.27;1.60;;;;;;;16.59;85.75;98067.19;4934006;28;42342;-76
2023/05/10 01:03:49;;;;;;;2.17;1.33;;;;;;;16.55;86.37;98056.00;4920912;28;38845;-76
2023/05/10 01:06:16;;;;;;;1.67;1.50;;;;;;;16.57;87.13;98062.00;4936562;28;42594;-76
2023/05/10 01:08:44;;;;;;;1.47;1.37;;;;;;;16.55;86.10;98066.69;4936229;28;41891;-76
2023/05/10 01:11:13;;;;;;;1.87;1.33;;;;;;;16.57;86.75;98067.34;4954054;28;42261;-76
2023/05/10 01:13:44;;;;;;;1.83;1.67;;;;;;;16.55;86.21;98066.69;4920663;28;40287;-76
2023/05/10 01:16:12;;;;;;;1.50;1.40;;;;;;;16.55;86.19;98069.38;4933838;28;41823;-76
2023/05/10 01:18:41;;;;;;;1.97;1.20;;;;;;;16.54;86.58;98065.00;4953651;28;43544;-76
2023/05/10 01:21:20;;;;;;;1.60;1.20;;;;;;;16.56;87.22;98072.88;4936405;28;41296;-76
2023/05/10 01:24:13;;;;;;;1.33;1.23;;;;;;;16.54;86.72;98070.34;4935488;28;40756;-76
2023/05/10 01:27:03;;;;;;;1.40;1.20;;;;;;;16.54;86.91;98070.34;4933599;28;41923;-77
2023/05/10 01:30:13;;;;;;;1.80;1.30;;;;;;;16.54;87.43;98070.34;4924134;28;41712;-76
2023/05/10 01:32:47;;;;;;;1.37;1.27;;;;;;;16.49;87.21;98078.81;4953382;28;43033;-76
2023/05/10 01:35:20;;;;;;;2.73;1.30;;;;;;;16.45;87.02;98080.09;4920771;28;41204;-76
2023/05/10 01:37:53;;;;;;;1.40;1.30;;;;;;;16.39;88.18;98066.50;4936335;28;41747;-76
2023/05/10 01:40:33;;;;;;;1.43;1.10;;;;;;;16.42;87.39;98076.91;4920598;28;41870;-76
2023/05/10 01:43:03;;;;;;;1.10;1.07;;;;;;;16.42;87.12;98084.94;4934055;28;43090;-76
2023/05/10 01:45:38;;;;;;;1.07;1.07;;;;;;;16.43;87.31;98078.59;4920299;28;38770;-76
2023/05/10 01:48:11;;;;;;;1.43;1.20;;;;;;;16.41;87.13;98077.91;4919664;28;40826;-76
2023/05/10 01:50:42;;;;;;;2.03;1.20;;;;;;;16.22;87.40;98054.81;4936126;28;42874;-76
2023/05/10 01:53:12;;;;;;;1.20;1.00;;;;;;;16.40;87.59;98085.06;4951319;28;42078;-76
2023/05/10 01:55:46;;;;;;;1.93;1.10;;;;;;;16.42;87.01;98092.94;4936089;28;40939;-76
2023/05/10 01:58:18;;;;;;;0.93;0.93;;;;;;;16.44;87.36;98091.78;4933783;28;41885;-76
2023/05/10 02:00:47;;;;;;;0.70;0.70;;;;;;;16.40;88.21;98089.56;4920237;28;41811;-76
2023/05/10 02:03:17;;;;;;;1.03;0.93;;;;;;;16.33;88.34;98097.34;4935722;28;42413;-76
2023/05/10 02:05:49;;;;;;;0.77;0.77;;;;;;;16.20;88.14;98082.66;4936116;28;40023;-76
2023/05/10 02:08:18;;;;;;;0.80;0.80;;;;;;;16.22;88.37;98097.56;4934045;28;42188;-76
2023/05/10 02:10:47;;;;;;;0.93;0.80;;;;;;;16.23;88.58;98103.75;4935690;28;41777;-76
2023/05/10 02:13:17;;;;;;;0.60;0.60;;;;;;;16.17;87.99;98100.69;4935528;28;40980;-76
2023/05/10 02:15:48;;;;;;;2.37;0.80;;;;;;;16.12;87.50;98108.28;4919875;28;39194;-75
2023/05/10 02:18:18;;;;;;;0.63;0.60;;;;;;;16.11;87.45;98106.63;4951133;28;41913;-75
2023/05/10 02:20:47;;;;;;;0.70;0.70;;;;;;;16.11;87.56;98105.78;4919646;28;41446;-76
2023/05/10 02:23:18;;;;;;;0.70;0.70;;;;;;;16.10;88.07;98107.59;4935625;28;42839;-76
2023/05/10 02:25:48;;;;;;;0.70;0.70;;;;;;;16.01;87.90;98113.84;4935554;28;39762;-76
2023/05/10 02:28:17;;;;;;;1.43;0.60;;;;;;;15.92;88.28;98112.06;4935511;28;41820;-75
2023/05/10 02:30:45;;;;;;;0.57;0.57;;;;;;;15.87;87.61;98119.66;4919580;28;43266;-76
2023/05/10 02:33:13;;;;;;;1.07;0.53;;;;;;;15.85;88.38;98118.97;4919611;28;41082;-76
2023/05/10 02:35:42;;;;;;;0.50;0.50;;;;;;;15.83;87.67;98123.59;4952706;28;40867;-75
2023/05/10 02:38:11;;;;;;;0.70;0.70;;;;;;;15.80;87.76;98129.25;4935480;28;42047;-76
2023/05/10 02:40:42;;;;;;;1.13;0.67;;;;;;;15.77;87.38;98129.53;4919489;28;42141;-75
2023/05/10 02:43:14;;;;;;;0.83;0.70;;;;;;;15.75;86.95;98128.84;4935513;28;41311;-76
2023/05/10 02:45:43;;;;;;;0.53;0.53;;;;;;;15.75;86.80;98127.00;4919467;28;39963;-76
2023/05/10 02:48:11;;;;;;;0.63;0.50;;;;;;;15.74;86.63;98125.34;4919119;28;42034;-77
2023/05/10 02:50:44;;;;;;;0.50;0.50;;;;;;;15.71;86.52;98124.78;4935136;28;42068;-76
2023/05/10 02:53:16;;;;;;;1.43;0.63;;;;;;;15.70;86.05;98125.78;4919481;28;41689;-76
2023/05/10 02:55:50;;;;;;;12.53;0.80;;;;;;;15.67;86.43;98121.56;4932408;28;40849;-76
2023/05/10 02:58:19;;;;;;;0.57;0.57;;;;;;;15.62;86.18;98125.66;4919044;28;40666;-76
2023/05/10 03:00:47;;;;;;;0.40;0.40;;;;;;;15.59;86.82;98128.59;4934846;28;41755;-75
2023/05/10 03:03:15;;;;;;;0.73;0.60;;;;;;;15.58;86.55;98125.09;4935021;28;42962;-76
2023/05/10 03:05:44;;;;;;;0.50;0.50;;;;;;;15.60;86.81;98131.13;4935155;28;40461;-76
2023/05/10 03:08:12;;;;;;;0.83;0.60;;;;;;;15.59;86.11;98136.63;4934935;28;42944;-76
2023/05/10 03:10:49;;;;;;;0.63;0.50;;;;;;;15.57;86.39;98134.13;4919244;28;42722;-76
2023/05/10 03:13:30;;;;;;;0.77;0.50;;;;;;;15.51;86.29;98139.97;4919122;28;41599;-76
2023/05/10 03:16:04;;;;;;;0.50;0.50;;;;;;;15.46;86.14;98137.75;4919458;28;41053;-76
2023/05/10 03:18:38;;;;;;;0.40;0.40;;;;;;;15.37;86.03;98135.94;4918755;28;40895;-76
2023/05/10 03:21:12;;;;;;;0.43;0.40;;;;;;;15.32;86.21;98135.53;4918885;28;41697;-76
2023/05/10 03:23:45;;;;;;;0.63;0.50;;;;;;;15.24;86.00;98132.72;4933609;28;43203;-76
2023/05/10 03:26:18;;;;;;;0.40;0.40;;;;;;;15.14;86.37;98123.06;4932608;28;39935;-76
2023/05/10 03:28:46;;;;;;;0.40;0.40;;;;;;;15.14;86.21;98134.56;4919103;28;41821;-78
2023/05/10 03:31:15;;;;;;;1.13;0.40;;;;;;;15.13;86.33;98145.38;4935214;28;42913;-78
2023/05/10 03:33:48;;;;;;;2.17;0.40;;;;;;;15.08;86.40;98153.81;4935075;28;42308;-76
2023/05/10 03:36:19;;;;;;;1.13;0.30;;;;;;;15.08;86.49;98153.81;4919343;28;38906;-77
2023/05/10 03:38:48;;;;;;;0.40;0.40;;;;;;;14.77;86.44;98106.94;4934537;28;42709;-76
2023/05/10 03:41:16;;;;;;;0.57;0.47;;;;;;;15.02;86.60;98149.88;4935049;28;43459;-74
2023/05/10 03:43:43;;;;;;;0.33;0.33;;;;;;;15.01;86.36;98153.53;4919196;28;42258;-78
2023/05/10 03:46:11;;;;;;;0.80;0.80;;;;;;;15.01;86.98;98158.00;4934917;28;39837;-78
2023/05/10 03:48:39;;;;;;;0.73;0.60;;;;;;;15.05;86.71;98156.75;4934910;28;42801;-76
2023/05/10 03:51:06;;;;;;;0.43;0.43;;;;;;;15.08;87.16;98169.81;4918695;28;42872;-78
2023/05/10 03:53:36;;;;;;;1.30;0.40;;;;;;;15.12;86.73;98173.88;4918728;28;42281;-75
2023/05/10 03:56:04;;;;;;;0.60;0.60;;;;;;;15.16;86.34;98167.28;4934802;28;39937;-75
2023/05/10 03:58:31;;;;;;;0.73;0.30;;;;;;;15.18;85.89;98170.66;4934135;28;40555;-76
2023/05/10 04:00:59;;;;;;;0.90;0.60;;;;;;;15.10;86.14;98154.50;4918763;28;41769;-75
2023/05/10 04:03:27;;;;;;;0.40;0.40;;;;;;;15.26;85.92;98173.44;4934197;28;42384;-76
2023/05/10 04:06:01;;;;;;;0.70;0.43;;;;;;;15.23;85.55;98171.06;4918734;28;39716;-76
2023/05/10 04:08:29;;;;;;;0.50;0.50;;;;;;;15.33;85.64;98185.22;4918297;28;41839;-75
2023/05/10 04:11:07;;;;;;;0.60;0.60;;;;;;;15.37;85.40;98186.63;4919100;28;42172;-76
2023/05/10 04:13:35;;;;;;;0.50;0.50;;;;;;;15.39;85.34;98179.34;4953451;28;42966;-75
2023/05/10 04:16:03;;;;;;;2.07;0.70;;;;;;;15.39;85.64;98183.81;4937847;28;39614;-75
2023/05/10 04:18:31;;;;;;;1.67;0.87;;;;;;;15.37;85.29;98186.63;4937623;28;41662;-76
2023/05/10 04:20:59;;;;;;;0.93;0.70;;;;;;;15.34;85.12;98186.91;4937696;28;42799;-76
2023/05/10 04:23:28;;;;;;;0.50;0.50;;;;;;;15.39;85.02;98195.34;4937101;28;41542;-75
2023/05/10 04:26:00;;;;;;;0.70;0.70;;;;;;;15.35;84.60;98190.41;4937626;28;40858;-76
2023/05/10 04:28:30;;;;;;;0.93;0.60;;;;;;;15.38;84.64;98199.00;4935339;28;42308;-75
2023/05/10 04:31:02;;;;;;;0.60;0.60;;;;;;;15.35;84.50;98198.41;4937372;28;42057;-76
2023/05/10 04:33:30;;;;;;;0.60;0.60;;;;;;;15.33;84.66;98201.22;4921176;28;42506;-76
2023/05/10 04:35:59;;;;;;;2.03;0.60;;;;;;;15.34;84.40;98202.91;4954538;28;39873;-75
2023/05/10 04:38:27;;;;;;;1.50;0.57;;;;;;;15.41;84.14;98209.38;4921181;28;41322;-76
2023/05/10 04:40:55;;;;;;;0.50;0.50;;;;;;;15.34;84.26;98196.72;4921399;28;41860;-75
2023/05/10 04:43:22;;;;;;;0.50;0.50;;;;;;;15.46;84.04;98207.13;4936976;28;41486;-75
2023/05/10 04:45:51;;;;;;;0.67;0.67;;;;;;;15.47;84.01;98210.63;4954462;28;39960;-75
2023/05/10 04:48:19;;;;;;;0.50;0.50;;;;;;;15.53;84.21;98219.91;4920986;28;40928;-75
2023/05/10 04:50:47;;;;;;;0.50;0.50;;;;;;;15.59;83.72;98217.53;4937161;28;42486;-76
2023/05/10 04:53:14;;;;;;;0.70;0.70;;;;;;;15.61;83.59;98220.91;4953776;28;42358;-75
2023/05/10 04:55:43;;;;;;;0.57;0.57;;;;;;;15.63;83.51;98223.44;4936865;28;42549;-75
2023/05/10 04:58:10;;;;;;;1.43;0.77;;;;;;;15.69;83.33;98225.53;4936949;28;41007;-75
2023/05/10 05:00:38;;;;;;;1.30;0.70;;;;;;;15.71;82.76;98220.88;4954004;28;43556;-74
2023/05/10 05:03:07;;;;;;;0.80;0.70;;;;;;;15.78;82.90;98230.00;4936804;28;41285;-74
2023/05/10 05:05:35;;;;;;;0.93;0.70;;;;;;;15.83;82.65;98235.75;4936604;28;39989;-75
2023/05/10 05:08:03;;;;;;;0.50;0.50;;;;;;;15.92;82.42;98234.06;4936435;28;42825;-75
2023/05/10 05:10:31;;;;;;;0.60;0.60;;;;;;;16.00;81.88;98237.69;4936808;28;42656;-73
2023/05/10 05:12:58;;;;;;;1.33;0.80;;;;;;;16.05;81.38;98238.09;4953781;28;42248;-73
2023/05/10 05:15:26;;;;;;;0.70;0.70;;;;;;;15.97;81.53;98227.28;4920741;28;40023;-74
2023/05/10 05:17:54;;;;;;;0.93;0.80;;;;;;;16.13;81.24;98243.53;4920395;28;41141;-73
2023/05/10 05:20:23;;;;;;;0.67;0.67;;;;;;;16.22;80.64;98235.63;4936697;28;41694;-76
2023/05/10 05:22:51;;;;;;;0.50;0.50;;;;;;;16.33;80.91;98248.81;4952577;28;43211;-75
2023/05/10 05:25:19;;;;;;;0.70;0.70;;;;;;;16.43;80.04;98252.31;4936924;28;41113;-76
2023/05/10 05:27:46;;;;;;;0.70;0.70;;;;;;;16.50;79.82;98256.06;4920393;28;40783;-76
2023/05/10 05:30:14;;;;;;;0.70;0.63;;;;;;;16.56;79.33;98258.16;4920812;28;41757;-76
2023/05/10 05:32:42;;;;;;;3.43;0.70;;;;;;;16.60;78.99;98262.19;4953783;28;42335;-76
2023/05/10 05:35:10;;;;;;;0.80;0.80;;;;;;;16.67;79.22;98258.00;4936689;28;38841;-75
2023/05/10 05:37:40;;;;;;;0.70;0.70;;;;;;;16.75;78.70;98260.75;4920415;28;40776;-76
2023/05/10 05:40:08;;;;;;;0.90;0.67;;;;;;;16.79;78.66;98240.75;4936579;28;43806;-77
2023/05/10 05:42:38;;;;;;;0.83;0.70;;;;;;;16.99;78.28;98256.66;4936139;28;41189;-75
2023/05/10 05:45:08;;;;;;;1.17;0.80;;;;;;;17.06;77.28;98261.25;4936601;28;41051;-76
2023/05/10 05:47:36;;;;;;;0.67;0.67;;;;;;;17.16;77.08;98263.88;4936331;28;44547;-76
2023/05/10 05:50:04;;;;;;;1.50;0.77;;;;;;;17.26;76.65;98271.84;4953478;28;43764;-75
2023/05/10 05:52:32;;;;;;;0.50;0.50;;;;;;;17.35;76.13;98263.72;4953338;28;43085;-75
2023/05/10 05:55:01;;;;;;;3.03;0.73;;;;;;;17.37;75.45;98263.56;4936319;28;38518;-75
2023/05/10 05:57:29;;;;;;;0.63;0.60;;;;;;;17.49;75.31;98268.53;4936481;28;40673;-79
2023/05/10 05:59:56;;;;;;;2.37;0.80;;;;;;;17.53;74.43;98277.97;4936357;28;42758;-77
2023/05/10 06:02:24;;;;;;;0.77;0.77;;;;;;;17.61;74.48;98271.81;4936445;28;42187;-76
2023/05/10 06:04:51;;;;;;;1.70;0.90;;;;;;;17.72;74.53;98281.50;4936302;28;38955;-78
2023/05/10 06:07:20;;;;;;;0.80;0.70;;;;;;;17.82;73.88;98282.22;4953624;28;42633;-79
2023/05/10 06:09:47;;;;;;;0.67;0.67;;;;;;;17.94;73.72;98287.19;4920738;28;41579;-78
2023/05/10 06:12:16;;;;;;;0.60;0.60;;;;;;;18.12;73.51;98289.84;4953836;28;42148;-76
2023/05/10 06:14:44;;;;;;;1.47;0.60;;;;;;;18.36;72.52;98288.31;4936186;28;41078;-79
2023/05/10 06:17:11;;;;;;;1.30;1.00;;;;;;;18.63;71.55;98294.38;4936287;28;40894;-78
2023/05/10 06:19:39;;;;;;;1.00;1.00;;;;;;;18.96;70.07;98303.38;4953227;28;43713;-79
2023/05/10 06:22:07;;;;;;;1.33;0.77;;;;;;;19.12;69.72;98272.25;4920234;28;41632;-81
2023/05/10 06:24:34;;;;;;;1.30;0.70;;;;;;;19.39;69.36;98293.44;4936445;28;40925;-79
2023/05/10 06:27:03;;;;;;;1.07;0.70;;;;;;;19.55;69.10;98298.84;4936339;28;41783;-78
2023/05/10 06:29:33;;;;;;;1.67;0.83;;;;;;;19.69;67.88;98308.94;4920217;28;41684;-79
2023/05/10 06:32:01;;;;;;;2.00;0.87;;;;;;;19.88;67.29;98306.97;4920284;28;42189;-78
2023/05/10 06:34:28;;;;;;;0.70;0.70;;;;;;;20.00;65.69;98311.81;4919526;28;40853;-77
2023/05/10 06:36:56;;;;;;;1.97;1.00;;;;;;;20.06;64.73;98315.66;4920078;28;40656;-76
2023/05/10 06:39:24;;;;;;;0.80;0.70;;;;;;;20.27;65.02;98318.69;4935874;28;42913;-77
2023/05/10 06:41:52;;;;;;;3.20;0.90;;;;;;;20.55;64.11;98321.84;4920155;28;41449;-76
2023/05/10 06:44:20;;;;;;;0.90;0.90;;;;;;;20.51;63.79;98303.56;4935941;28;40047;-76
2023/05/10 06:46:49;;;;;;;0.70;0.70;;;;;;;20.42;63.32;98303.56;4936167;28;41185;-79
2023/05/10 06:49:17;;;;;;;1.37;1.10;;;;;;;20.55;62.53;98331.78;4919858;28;42829;-78
2023/05/10 06:51:45;;;;;;;0.83;0.83;;;;;;;20.49;61.16;98340.53;4920030;28;42463;-79
2023/05/10 06:54:12;;;;;;;1.03;0.70;;;;;;;20.30;61.69;98331.78;4952884;28;40187;-77
2023/05/10 06:56:40;;;;;;;1.80;0.80;;;;;;;19.70;61.19;98286.44;4919680;28;40770;-78
2023/05/10 06:59:08;;;;;;;3.13;1.00;;;;;;;19.60;61.96;98288.47;4934967;28;43372;-83
2023/05/10 07:01:36;;;;;;;4.80;0.87;;;;;;;19.67;63.04;98329.75;4919582;28;42544;-76
2023/05/10 07:04:05;;;;;;;3.70;1.13;;;;;;;19.58;63.39;98324.56;4919674;28;40703;-79
2023/05/10 07:06:33;;;;;;;1.00;0.80;;;;;;;19.56;63.38;98330.09;4935638;28;40568;-79
2023/05/10 07:09:01;;;;;;;1.70;1.10;;;;;;;19.35;63.01;98310.88;4935412;28;41751;-78
2023/05/10 07:11:29;;;;;;;1.13;1.00;;;;;;;19.45;62.73;98325.00;4952697;28;41930;-78
2023/05/10 07:13:56;;;;;;;0.90;0.80;;;;;;;19.44;63.19;98325.16;4935700;28;39884;-75
2023/05/10 07:16:24;;;;;;;1.80;0.93;;;;;;;19.54;63.55;98325.88;4935523;28;41864;-83
2023/05/10 07:18:53;;;;;;;1.20;1.10;;;;;;;19.68;62.97;98344.88;4935358;28;41542;-78
2023/05/10 07:21:23;;;;;;;2.23;1.43;;;;;;;19.79;62.50;98340.19;4952360;28;42369;-84
2023/05/10 07:23:51;;;;;;;1.00;1.00;;;;;;;19.82;61.91;98343.38;4952436;28;39988;-77
2023/05/10 07:26:19;;;;;;;1.73;0.93;;;;;;;19.92;61.57;98341.38;4952466;28;41807;-76
2023/05/10 07:28:46;;;;;;;1.87;1.00;;;;;;;19.86;61.31;98341.22;4918595;28;41990;-77
2023/05/10 07:31:14;;;;;;;2.07;1.03;;;;;;;19.62;61.00;98329.44;4919247;28;42236;-77
2023/05/10 07:33:42;;;;;;;2.00;0.97;;;;;;;19.56;61.76;98330.09;4934750;28;39685;-76
2023/05/10 07:36:09;;;;;;;1.93;1.30;;;;;;;19.72;61.69;98350.78;4934928;28;40968;-77
2023/05/10 07:38:39;;;;;;;2.03;1.10;;;;;;;19.77;60.54;98352.97;4934858;28;41872;-76
2023/05/10 07:41:06;;;;;;;1.97;1.00;;;;;;;19.73;61.18;98353.28;4952051;28;42266;-75
2023/05/10 07:43:34;;;;;;;1.47;1.00;;;;;;;19.71;61.04;98366.06;4935121;28;40982;-79
2023/05/10 07:46:02;;;;;;;4.33;1.73;;;;;;;20.01;60.30;98361.06;4936117;28;41740;-83
2023/05/10 07:48:30;;;;;;;1.37;1.17;;;;;;;20.51;60.26;98350.13;4938427;28;42739;-77
2023/05/10 07:50:57;;;;;;;1.93;1.33;;;;;;;20.88;58.45;98371.06;4922246;28;41302;-75
2023/05/10 07:53:27;;;;;;;1.23;1.13;;;;;;;20.83;58.11;98362.66;4922404;28;39923;-78
2023/05/10 07:55:59;;;;;;;3.60;1.50;;;;;;;20.73;58.70;98362.00;4955449;28;42666;-80
2023/05/10 07:58:27;;;;;;;1.13;1.00;;;;;;;20.71;58.93;98369.41;4922086;28;42745;-78
2023/05/10 08:00:56;;;;;;;6.53;1.97;;;;;;;20.70;58.94;98373.13;4938499;28;42466;-78
2023/05/10 08:03:23;;;;;;;1.57;1.00;;;;;;;20.74;59.15;98374.47;4937938;28;38922;-75
2023/05/10 08:05:51;;;;;;;1.70;1.30;;;;;;;20.67;58.11;98341.16;4938326;28;40285;-77
2023/05/10 08:08:19;;;;;;;3.17;0.97;;;;;;;21.06;56.93;98384.28;4937792;28;43876;-79
2023/05/10 08:10:47;;;;;;;2.20;1.20;;;;;;;21.18;57.36;98385.59;4937672;28;42274;-79
2023/05/10 08:13:16;;;;;;;1.43;1.00;;;;;;;21.28;56.41;98393.47;4921922;28;41175;-79
2023/05/10 08:15:44;;;;;;;5.00;1.20;;;;;;;21.30;56.30;98403.06;4955284;28;41970;-77
2023/05/10 08:18:11;;;;;;;2.27;1.07;;;;;;;21.07;55.94;98402.97;4937986;28;42771;-77
2023/05/10 08:20:39;;;;;;;1.63;1.10;;;;;;;20.88;56.54;98397.97;4937948;28;43299;-78
2023/05/10 08:23:06;;;;;;;1.70;1.00;;;;;;;20.73;56.66;98405.06;4955010;28;40018;-80
2023/05/10 08:25:34;;;;;;;3.10;1.23;;;;;;;20.52;56.76;98394.84;4938060;28;42718;-77
2023/05/10 08:28:02;;;;;;;2.53;1.43;;;;;;;20.53;57.50;98403.72;4937807;28;43801;-79
2023/05/10 08:30:31;;;;;;;1.30;1.20;;;;;;;20.59;58.09;98408.44;4921876;28;41158;-78
2023/05/10 08:32:59;;;;;;;1.47;1.30;;;;;;;20.76;57.10;98412.81;4921585;28;38848;-75
2023/05/10 08:35:26;;;;;;;2.67;1.17;;;;;;;21.23;56.21;98417.41;4937402;28;41916;-77
2023/05/10 08:37:54;;;;;;;3.63;1.07;;;;;;;21.77;54.67;98427.25;4937638;28;43546;-77
2023/05/10 08:40:22;;;;;;;1.07;0.90;;;;;;;22.31;53.44;98424.56;4937785;28;42388;-76
2023/05/10 08:42:56;;;;;;;2.07;1.10;;;;;;;23.20;51.79;98431.84;4954648;28;39917;-78
2023/05/10 08:45:24;;;;;;;1.40;1.03;;;;;;;23.27;50.95;98430.06;4921753;28;41106;-77
2023/05/10 08:47:54;;;;;;;0.73;0.73;;;;;;;23.13;51.37;98432.75;4921499;28;41975;-76
2023/05/10 08:50:22;;;;;;;1.47;1.00;;;;;;;23.03;51.79;98437.59;4937575;28;41635;-81
2023/05/10 08:52:56;;;;;;;1.63;1.20;;;;;;;22.97;51.73;98438.34;4937619;28;40115;-79
2023/05/10 08:55:25;;;;;;;3.27;1.20;;;;;;;22.53;51.68;98442.59;4921787;28;42146;-80
2023/05/10 08:57:52;;;;;;;2.50;0.90;;;;;;;21.99;52.56;98430.22;4936872;28;42774;-77
2023/05/10 09:00:22;;;;;;;1.50;1.10;;;;;;;21.67;53.55;98434.72;4936623;28;42439;-78
2023/05/10 09:02:51;;;;;;;1.27;0.80;;;;;;;21.42;54.50;98434.00;4936744;28;39621;-77
2023/05/10 09:05:20;;;;;;;1.43;1.10;;;;;;;21.46;54.82;98429.09;4920827;28;40792;-76
2023/05/10 09:07:47;;;;;;;2.53;1.00;;;;;;;21.50;54.35;98436.69;4936595;28;43666;-76
2023/05/10 09:10:16;;;;;;;1.73;1.43;;;;;;;21.31;54.49;98425.47;4936780;28;42553;-77
2023/05/10 09:12:45;;;;;;;3.30;1.00;;;;;;;21.11;54.44;98442.00;4936903;28;38688;-81
2023/05/10 09:15:16;;;;;;;1.00;0.80;;;;;;;21.03;54.64;98439.31;4937020;28;41581;-74
2023/05/10 09:17:45;;;;;;;1.50;1.10;;;;;;;21.01;55.40;98435.97;4934060;28;42696;-76
2023/05/10 09:20:13;;;;;;;1.93;1.10;;;;;;;21.05;54.58;98436.44;4920859;28;42373;-75
2023/05/10 09:22:42;;;;;;;3.00;1.30;;;;;;;21.26;54.85;98441.31;4953989;28;39658;-76
2023/05/10 09:25:12;;;;;;;2.37;1.20;;;;;;;21.49;54.63;98444.94;4920621;28;41945;-75
2023/05/10 09:27:40;;;;;;;2.80;1.10;;;;;;;21.52;53.86;98450.78;4953313;28;44259;-78
2023/05/10 09:30:09;;;;;;;1.27;1.17;;;;;;;21.52;54.34;98455.34;4954232;28;43300;-79
2023/05/10 09:32:38;;;;;;;1.40;1.30;;;;;;;21.47;53.41;98457.72;4921043;28;38837;-78
2023/05/10 09:35:10;;;;;;;2.10;1.10;;;;;;;21.32;53.13;98432.53;4936629;28;41796;-77
2023/05/10 09:37:38;;;;;;;3.13;1.23;;;;;;;21.54;52.72;98452.47;4920560;28;42836;-77
2023/05/10 09:40:09;;;;;;;2.33;1.37;;;;;;;21.79;52.64;98473.75;4920568;28;41120;-78
2023/05/10 09:42:36;;;;;;;1.90;1.13;;;;;;;21.99;52.65;98471.50;4921267;28;39968;-80
2023/05/10 09:45:05;;;;;;;2.37;1.13;;;;;;;22.17;52.30;98460.41;4936187;28;40922;-78
2023/05/10 09:47:34;;;;;;;2.17;1.40;;;;;;;22.32;51.75;98472.13;4936404;28;43525;-80
2023/05/10 09:50:04;;;;;;;3.57;1.10;;;;;;;22.53;51.45;98472.28;4953682;28;42558;-78
2023/05/10 09:52:47;;;;;;;1.57;1.00;;;;;;;22.98;50.40;98467.88;4920697;28;39688;-80
2023/05/10 09:55:19;;;;;;;1.87;1.00;;;;;;;23.43;50.33;98468.75;4920024;28;42519;-76
2023/05/10 09:57:48;;;;;;;2.60;1.23;;;;;;;23.81;50.33;98473.03;4950577;28;42855;-78
2023/05/10 10:00:20;;;;;;;1.50;0.97;;;;;;;24.21;49.60;98468.06;4935875;28;42116;-77
2023/05/10 10:02:49;;;;;;;1.63;1.10;;;;;;;24.79;48.48;98476.97;4950917;28;40491;-79
2023/05/10 10:05:17;;;;;;;1.07;0.90;;;;;;;25.66;46.76;98472.00;4920423;28;40998;-79
2023/05/10 10:07:45;;;;;;;1.10;1.00;;;;;;;26.82;44.47;98490.75;4935892;28;42332;-77
2023/05/10 10:10:14;;;;;;;2.03;1.20;;;;;;;27.99;42.03;98506.25;4919542;28;41459;-79
2023/05/10 10:12:44;;;;;;;1.23;1.10;;;;;;;28.82;40.37;98518.00;4935924;28;39210;-80
2023/05/10 10:15:12;;;;;;;1.57;1.10;;;;;;;29.28;37.81;98516.78;4935650;28;41179;-80
2023/05/10 10:17:41;;;;;;;1.40;1.20;;;;;;;29.75;37.37;98528.94;4919876;28;42211;-77
2023/05/10 10:20:10;;;;;;;2.80;1.20;;;;;;;30.61;36.33;98533.38;4935851;28;43069;-77
2023/05/10 10:22:38;;;;;;;2.83;1.00;;;;;;;31.27;35.38;98537.84;4919812;28;38958;-83
2023/05/10 10:25:07;;;;;;;1.90;1.13;;;;;;;30.94;36.18;98528.22;4936208;28;41907;-80
2023/05/10 10:27:46;;;;;;;1.80;0.97;;;;;;;30.17;36.69;98516.28;4935821;28;43243;-79
2023/05/10 10:30:24;;;;;;;0.80;0.80;;;;;;;29.61;36.21;98528.25;4950788;28;42304;-79
2023/05/10 10:33:30;;;;;;;1.70;0.90;;;;;;;29.20;37.03;98517.06;4919853;28;38967;-80
2023/05/10 10:36:01;;;;;;;1.23;0.90;;;;;;;28.83;38.11;98508.75;4895190;28;40879;-80
2023/05/10 10:38:38;;;;;;;1.87;1.13;;;;;;;28.62;38.14;98513.72;4935651;28;43043;-82
2023/05/10 10:41:11;;;;;;;1.23;0.93;;;;;;;28.33;37.69;98512.41;4920183;28;42215;-80
2023/05/10 10:43:41;;;;;;;1.60;0.90;;;;;;;28.22;37.71;98517.50;4920309;28;39806;-82
2023/05/10 10:46:14;;;;;;;1.73;1.03;;;;;;;27.84;37.21;98494.78;4935955;28;40671;-80
2023/05/10 10:48:43;;;;;;;2.40;1.07;;;;;;;27.83;38.75;98510.28;4952750;28;43400;-78
2023/05/10 10:51:10;;;;;;;0.90;0.83;;;;;;;27.64;38.19;98518.53;4935354;28;43230;-78
2023/05/10 10:53:39;;;;;;;0.97;0.80;;;;;;;27.46;39.44;98506.38;4935197;28;40126;-79
2023/05/10 10:56:09;;;;;;;1.10;1.00;;;;;;;27.57;38.69;98509.56;4952594;28;41719;-77
2023/05/10 10:58:38;;;;;;;1.07;0.97;;;;;;;27.66;39.01;98509.09;4918851;28;41728;-78
2023/05/10 11:01:15;;;;;;;1.00;0.90;;;;;;;27.95;37.83;98515.91;4949867;28;41996;-78
2023/05/10 11:04:16;;;;;;;0.70;0.70;;;;;;;28.16;38.18;98512.91;4934224;28;40090;-79
2023/05/10 11:06:44;;;;;;;2.10;0.80;;;;;;;28.39;36.76;98517.00;4935553;28;42208;-81
2023/05/10 11:09:13;;;;;;;3.33;1.10;;;;;;;28.64;36.69;98517.91;4935250;28;43723;-82
2023/05/10 11:11:54;;;;;;;1.30;0.80;;;;;;;28.97;37.41;98506.78;4935394;28;43317;-88
2023/05/10 11:14:23;;;;;;;0.80;0.80;;;;;;;29.45;36.40;98501.53;4952165;28;40618;-82
2023/05/10 11:16:52;;;;;;;0.80;0.80;;;;;;;29.44;36.34;98516.22;4919608;28;40512;-83
2023/05/10 11:19:20;;;;;;;3.17;1.10;;;;;;;29.53;35.89;98520.34;4952095;28;42786;-84
2023/05/10 11:21:49;;;;;;;1.00;0.90;;;;;;;29.55;35.72;98517.41;4938268;28;42539;-77
2023/05/10 11:24:20;;;;;;;1.20;0.90;;;;;;;29.70;35.25;98514.28;4938527;28;40685;-82
2023/05/10 11:26:51;;;;;;;2.13;0.90;;;;;;;29.94;35.29;98506.03;4953086;28;42262;-77
2023/05/10 11:29:19;;;;;;;1.93;0.90;;;;;;;30.20;34.39;98502.16;4922699;28;43174;-80
2023/05/10 11:31:48;;;;;;;5.30;1.30;;;;;;;30.40;33.13;98536.59;4955634;28;42301;-77
2023/05/10 11:34:26;;;;;;;1.20;0.70;;;;;;;30.56;33.98;98531.31;4938592;28;40953;-77
2023/05/10 11:36:55;;;;;;;1.00;0.70;;;;;;;30.64;33.82;98517.34;4922994;28;41483;-83
2023/05/10 11:39:27;;;;;;;1.70;0.77;;;;;;;30.92;33.18;98526.78;4922236;28;41467;-81
2023/05/10 11:41:55;;;;;;;0.83;0.80;;;;;;;31.02;33.15;98543.50;4922957;28;42268;-78
2023/05/10 11:44:23;;;;;;;1.33;0.87;;;;;;;30.89;33.41;98535.50;4955486;28;40098;-83
2023/05/10 11:46:51;;;;;;;2.17;0.80;;;;;;;30.83;33.97;98539.16;4922677;28;41614;-81